Fairbanks, Louisiana
Current Conditions -  °F | °C
As of 9:53 AM on Saturday 25 Oct 2014 (Local Time) from KMLU Reporting Station
Clear Clear  
Wind Chill: 66°   Ceiling: Unl
Heat Index: 66°   Visibility: 10mi
Dew Point: 55°   Wind: 3mph
Humidity: 68%   Direction: 260°W
Pressure: 30.19"   Gusts: NA
Location:  32.64°N, 92.04°W
Report Text: KMLU 251453Z 26003KT 10SM CLR 19/13 A3019 RMK AO2 SLP221 T01890128 53012
Loading
Personal Weather Stations






























Interactive Weather Map
Tropical Storm Tracking
New forecast layout! Learn more

10-Day Weather Forecast

Advertisements
Track Severe Weather on mobile